sensor_id;sensor_type;location;lat;lon;timestamp;temperature;humidity
23267;DHT22;11802;53.160;8.214;2023-03-01T00:01:01;-1.00;99.90
23267;DHT22;11802;53.160;8.214;2023-03-01T00:03:27;-1.00;99.90
23267;DHT22;11802;53.160;8.214;2023-03-01T00:05:53;-1.00;99.90
23267;DHT22;11802;53.160;8.214;2023-03-01T00:08:19;-1.00;99.90
23267;DHT22;11802;53.160;8.214;2023-03-01T00:10:44;-1.00;99.90
23267;DHT22;11802;53.160;8.214;2023-03-01T00:13:10;-1.10;99.90
23267;DHT22;11802;53.160;8.214;2023-03-01T00:15:39;-1.10;99.90
23267;DHT22;11802;53.160;8.214;2023-03-01T00:18:05;-1.20;99.90
23267;DHT22;11802;53.160;8.214;2023-03-01T00:20:30;-1.10;99.90
23267;DHT22;11802;53.160;8.214;2023-03-01T00:22:56;-1.10;99.90
23267;DHT22;11802;53.160;8.214;2023-03-01T00:25:21;-1.20;99.90
23267;DHT22;11802;53.160;8.214;2023-03-01T00:27:47;-1.20;99.90
23267;DHT22;11802;53.160;8.214;2023-03-01T00:30:14;-1.20;99.90
23267;DHT22;11802;53.160;8.214;2023-03-01T00:32:39;-1.20;99.90
23267;DHT22;11802;53.160;8.214;2023-03-01T00:35:05;-1.20;99.90
23267;DHT22;11802;53.160;8.214;2023-03-01T00:37:31;-1.20;99.90
23267;DHT22;11802;53.160;8.214;2023-03-01T00:39:56;-1.20;99.90
23267;DHT22;11802;53.160;8.214;2023-03-01T00:42:22;-1.20;99.90
23267;DHT22;11802;53.160;8.214;2023-03-01T00:44:48;-1.30;99.90
23267;DHT22;11802;53.160;8.214;2023-03-01T00:47:13;-1.30;99.90
23267;DHT22;11802;53.160;8.214;2023-03-01T00:49:39;-1.30;99.90
23267;DHT22;11802;53.160;8.214;2023-03-01T00:52:05;-1.30;99.90
23267;DHT22;11802;53.160;8.214;2023-03-01T00:54:31;-1.30;99.90
23267;DHT22;11802;53.160;8.214;2023-03-01T00:56:56;-1.30;99.90
23267;DHT22;11802;53.160;8.214;2023-03-01T00:59:22;-1.40;99.90
23267;DHT22;11802;53.160;8.214;2023-03-01T01:01:47;-1.40;99.90
23267;DHT22;11802;53.160;8.214;2023-03-01T01:04:13;-1.40;99.90
23267;DHT22;11802;53.160;8.214;2023-03-01T01:06:42;-1.40;99.90
23267;DHT22;11802;53.160;8.214;2023-03-01T01:09:10;-1.40;99.90
23267;DHT22;11802;53.160;8.214;2023-03-01T01:11:46;-1.40;99.90
23267;DHT22;11802;53.160;8.214;2023-03-01T01:14:12;-1.50;99.90
23267;DHT22;11802;53.160;8.214;2023-03-01T01:16:38;-1.50;99.90
23267;DHT22;11802;53.160;8.214;2023-03-01T01:19:03;-1.40;99.90
23267;DHT22;11802;53.160;8.214;2023-03-01T01:21:29;-1.50;99.90
23267;DHT22;11802;53.160;8.214;2023-03-01T01:23:55;-1.50;99.90
23267;DHT22;11802;53.160;8.214;2023-03-01T01:26:24;-1.50;99.90
23267;DHT22;11802;53.160;8.214;2023-03-01T01:28:50;-1.50;99.90
23267;DHT22;11802;53.160;8.214;2023-03-01T01:31:16;-1.50;99.90
23267;DHT22;11802;53.160;8.214;2023-03-01T01:33:42;-1.40;99.90
23267;DHT22;11802;53.160;8.214;2023-03-01T01:36:08;-1.30;99.90
23267;DHT22;11802;53.160;8.214;2023-03-01T01:38:35;-1.40;99.90
23267;DHT22;11802;53.160;8.214;2023-03-01T01:41:00;-1.40;99.90
23267;DHT22;11802;53.160;8.214;2023-03-01T01:43:38;-1.40;99.90
23267;DHT22;11802;53.160;8.214;2023-03-01T01:46:24;-1.50;99.90
23267;DHT22;11802;53.160;8.214;2023-03-01T01:48:57;-1.50;99.90
23267;DHT22;11802;53.160;8.214;2023-03-01T01:51:27;-1.60;99.90
23267;DHT22;11802;53.160;8.214;2023-03-01T01:53:57;-1.60;99.90
23267;DHT22;11802;53.160;8.214;2023-03-01T01:56:24;-1.60;99.90
23267;DHT22;11802;53.160;8.214;2023-03-01T01:58:51;-1.60;99.90
23267;DHT22;11802;53.160;8.214;2023-03-01T02:01:17;-1.70;99.90
23267;DHT22;11802;53.160;8.214;2023-03-01T02:03:44;-1.70;99.90
23267;DHT22;11802;53.160;8.214;2023-03-01T02:06:19;-1.80;99.90
23267;DHT22;11802;53.160;8.214;2023-03-01T02:08:47;-1.80;99.90
23267;DHT22;11802;53.160;8.214;2023-03-01T02:11:14;-1.80;99.90
23267;DHT22;11802;53.160;8.214;2023-03-01T02:13:40;-1.80;99.90
23267;DHT22;11802;53.160;8.214;2023-03-01T02:16:11;-1.80;99.90
23267;DHT22;11802;53.160;8.214;2023-03-01T02:18:39;-1.80;99.90
23267;DHT22;11802;53.160;8.214;2023-03-01T02:21:16;-1.90;99.90
23267;DHT22;11802;53.160;8.214;2023-03-01T02:23:42;-1.80;99.90
23267;DHT22;11802;53.160;8.214;2023-03-01T02:26:32;-1.90;99.90
23267;DHT22;11802;53.160;8.214;2023-03-01T02:29:00;-1.90;99.90
23267;DHT22;11802;53.160;8.214;2023-03-01T02:31:25;-1.90;99.90
23267;DHT22;11802;53.160;8.214;2023-03-01T02:34:15;-2.00;99.90
23267;DHT22;11802;53.160;8.214;2023-03-01T02:37:13;-2.00;99.90
23267;DHT22;11802;53.160;8.214;2023-03-01T02:39:40;-1.90;99.90
23267;DHT22;11802;53.160;8.214;2023-03-01T02:42:11;-2.00;99.90
23267;DHT22;11802;53.160;8.214;2023-03-01T02:44:37;-2.00;99.90
23267;DHT22;11802;53.160;8.214;2023-03-01T02:47:03;-2.00;99.90
23267;DHT22;11802;53.160;8.214;2023-03-01T02:49:31;-2.10;99.90
23267;DHT22;11802;53.160;8.214;2023-03-01T02:57:34;-2.10;99.90
23267;DHT22;11802;53.160;8.214;2023-03-01T03:00:04;-2.10;99.90
23267;DHT22;11802;53.160;8.214;2023-03-01T03:02:35;-2.10;99.90
23267;DHT22;11802;53.160;8.214;2023-03-01T03:05:10;-2.20;99.90
23267;DHT22;11802;53.160;8.214;2023-03-01T03:07:39;-2.20;99.90
23267;DHT22;11802;53.160;8.214;2023-03-01T03:10:08;-2.30;99.90
23267;DHT22;11802;53.160;8.214;2023-03-01T03:12:34;-2.30;99.90
23267;DHT22;11802;53.160;8.214;2023-03-01T03:15:00;-2.30;99.90
23267;DHT22;11802;53.160;8.214;2023-03-01T03:17:25;-2.30;99.90
23267;DHT22;11802;53.160;8.214;2023-03-01T03:19:51;-2.20;99.90
23267;DHT22;11802;53.160;8.214;2023-03-01T03:22:16;-2.20;99.90
23267;DHT22;11802;53.160;8.214;2023-03-01T03:24:42;-2.30;99.90
23267;DHT22;11802;53.160;8.214;2023-03-01T03:27:07;-2.30;99.90
23267;DHT22;11802;53.160;8.214;2023-03-01T03:29:33;-2.30;99.90
23267;DHT22;11802;53.160;8.214;2023-03-01T03:31:59;-2.30;99.90
23267;DHT22;11802;53.160;8.214;2023-03-01T03:34:25;-2.30;99.90
23267;DHT22;11802;53.160;8.214;2023-03-01T03:36:54;-2.40;99.90
23267;DHT22;11802;53.160;8.214;2023-03-01T03:39:25;-2.40;99.90
23267;DHT22;11802;53.160;8.214;2023-03-01T03:41:51;-2.30;99.90
23267;DHT22;11802;53.160;8.214;2023-03-01T03:44:17;-2.30;99.90
23267;DHT22;11802;53.160;8.214;2023-03-01T03:46:42;-2.30;99.90
23267;DHT22;11802;53.160;8.214;2023-03-01T03:49:08;-2.30;99.90
23267;DHT22;11802;53.160;8.214;2023-03-01T03:51:33;-2.30;99.90
23267;DHT22;11802;53.160;8.214;2023-03-01T03:53:59;-2.40;99.90
23267;DHT22;11802;53.160;8.214;2023-03-01T03:56:24;-2.40;99.90
23267;DHT22;11802;53.160;8.214;2023-03-01T03:58:51;-2.40;99.90
23267;DHT22;11802;53.160;8.214;2023-03-01T04:01:17;-2.40;99.90
23267;DHT22;11802;53.160;8.214;2023-03-01T04:03:43;-2.40;99.90
23267;DHT22;11802;53.160;8.214;2023-03-01T04:06:12;-2.40;99.90
23267;DHT22;11802;53.160;8.214;2023-03-01T04:08:38;-2.40;99.90
23267;DHT22;11802;53.160;8.214;2023-03-01T04:11:05;-2.50;99.90
23267;DHT22;11802;53.160;8.214;2023-03-01T04:13:50;-2.50;99.90
23267;DHT22;11802;53.160;8.214;2023-03-01T04:16:16;-2.50;99.90
23267;DHT22;11802;53.160;8.214;2023-03-01T04:18:42;-2.50;99.90
23267;DHT22;11802;53.160;8.214;2023-03-01T04:21:07;-2.50;99.90
23267;DHT22;11802;53.160;8.214;2023-03-01T04:23:33;-2.60;99.90
23267;DHT22;11802;53.160;8.214;2023-03-01T04:26:00;-2.60;99.90
23267;DHT22;11802;53.160;8.214;2023-03-01T04:28:35;-2.60;99.90
23267;DHT22;11802;53.160;8.214;2023-03-01T04:31:13;-2.60;99.90
23267;DHT22;11802;53.160;8.214;2023-03-01T04:33:47;-2.60;99.90
23267;DHT22;11802;53.160;8.214;2023-03-01T04:36:14;-2.70;99.90
23267;DHT22;11802;53.160;8.214;2023-03-01T04:38:40;-2.70;99.90
23267;DHT22;11802;53.160;8.214;2023-03-01T04:41:09;-2.80;99.90
23267;DHT22;11802;53.160;8.214;2023-03-01T04:43:35;-2.80;99.90
23267;DHT22;11802;53.160;8.214;2023-03-01T04:46:03;-2.80;99.90
23267;DHT22;11802;53.160;8.214;2023-03-01T04:48:30;-2.80;99.90
23267;DHT22;11802;53.160;8.214;2023-03-01T04:50:56;-2.80;99.90
23267;DHT22;11802;53.160;8.214;2023-03-01T04:53:21;-2.80;99.90
23267;DHT22;11802;53.160;8.214;2023-03-01T04:55:47;-2.80;99.90
23267;DHT22;11802;53.160;8.214;2023-03-01T04:58:12;-2.80;99.90
23267;DHT22;11802;53.160;8.214;2023-03-01T05:00:38;-2.80;99.90
23267;DHT22;11802;53.160;8.214;2023-03-01T05:03:03;-2.80;99.90
23267;DHT22;11802;53.160;8.214;2023-03-01T05:05:36;-2.80;99.90
23267;DHT22;11802;53.160;8.214;2023-03-01T05:08:06;-2.80;99.90
23267;DHT22;11802;53.160;8.214;2023-03-01T05:10:34;-2.90;99.90
23267;DHT22;11802;53.160;8.214;2023-03-01T05:13:00;-2.90;99.90
23267;DHT22;11802;53.160;8.214;2023-03-01T05:15:27;-2.80;99.90
23267;DHT22;11802;53.160;8.214;2023-03-01T05:17:55;-2.80;99.90
23267;DHT22;11802;53.160;8.214;2023-03-01T05:20:21;-2.80;99.90
23267;DHT22;11802;53.160;8.214;2023-03-01T05:22:51;-2.90;99.90
23267;DHT22;11802;53.160;8.214;2023-03-01T05:25:17;-2.90;99.90
23267;DHT22;11802;53.160;8.214;2023-03-01T05:27:43;-2.90;99.90
23267;DHT22;11802;53.160;8.214;2023-03-01T05:30:09;-2.90;99.90
23267;DHT22;11802;53.160;8.214;2023-03-01T05:32:47;-2.90;99.90
23267;DHT22;11802;53.160;8.214;2023-03-01T05:35:15;-2.90;99.90
23267;DHT22;11802;53.160;8.214;2023-03-01T05:37:42;-3.00;99.90
23267;DHT22;11802;53.160;8.214;2023-03-01T05:40:10;-3.00;99.90
23267;DHT22;11802;53.160;8.214;2023-03-01T05:42:44;-2.90;99.90
23267;DHT22;11802;53.160;8.214;2023-03-01T05:45:11;-3.00;99.90
23267;DHT22;11802;53.160;8.214;2023-03-01T05:47:41;-3.00;99.90
23267;DHT22;11802;53.160;8.214;2023-03-01T05:50:16;-3.00;99.90
23267;DHT22;11802;53.160;8.214;2023-03-01T05:52:46;-3.00;99.90
23267;DHT22;11802;53.160;8.214;2023-03-01T05:55:14;-3.00;99.90
23267;DHT22;11802;53.160;8.214;2023-03-01T05:57:40;-3.00;99.90
23267;DHT22;11802;53.160;8.214;2023-03-01T06:00:07;-3.00;99.90
23267;DHT22;11802;53.160;8.214;2023-03-01T06:02:32;-3.00;99.90
23267;DHT22;11802;53.160;8.214;2023-03-01T06:04:58;-3.00;99.90
23267;DHT22;11802;53.160;8.214;2023-03-01T06:07:24;-3.00;99.90
23267;DHT22;11802;53.160;8.214;2023-03-01T06:09:49;-2.90;99.90
23267;DHT22;11802;53.160;8.214;2023-03-01T06:12:15;-2.80;99.90
23267;DHT22;11802;53.160;8.214;2023-03-01T06:14:40;-2.80;99.90
23267;DHT22;11802;53.160;8.214;2023-03-01T06:17:06;-2.80;99.90
23267;DHT22;11802;53.160;8.214;2023-03-01T06:19:31;-2.80;99.90
23267;DHT22;11802;53.160;8.214;2023-03-01T06:21:57;-2.80;99.90
23267;DHT22;11802;53.160;8.214;2023-03-01T06:24:22;-2.70;99.90
23267;DHT22;11802;53.160;8.214;2023-03-01T06:26:48;-2.70;99.90
23267;DHT22;11802;53.160;8.214;2023-03-01T06:29:13;-2.70;99.90
23267;DHT22;11802;53.160;8.214;2023-03-01T06:31:39;-2.60;99.90
23267;DHT22;11802;53.160;8.214;2023-03-01T06:34:05;-2.60;99.90
23267;DHT22;11802;53.160;8.214;2023-03-01T06:36:30;-2.50;99.90
23267;DHT22;11802;53.160;8.214;2023-03-01T06:38:56;-2.40;99.90
23267;DHT22;11802;53.160;8.214;2023-03-01T06:41:22;-2.40;99.90
23267;DHT22;11802;53.160;8.214;2023-03-01T06:43:48;-2.30;99.90
23267;DHT22;11802;53.160;8.214;2023-03-01T06:46:13;-2.20;99.90
23267;DHT22;11802;53.160;8.214;2023-03-01T06:48:39;-2.10;99.90
23267;DHT22;11802;53.160;8.214;2023-03-01T06:51:04;-2.00;99.90
23267;DHT22;11802;53.160;8.214;2023-03-01T06:53:30;-1.90;99.90
23267;DHT22;11802;53.160;8.214;2023-03-01T06:55:56;-1.80;99.90
23267;DHT22;11802;53.160;8.214;2023-03-01T06:58:22;-1.60;99.90
23267;DHT22;11802;53.160;8.214;2023-03-01T07:00:48;-1.30;99.90
23267;DHT22;11802;53.160;8.214;2023-03-01T07:03:13;-1.10;99.90
23267;DHT22;11802;53.160;8.214;2023-03-01T07:05:39;-0.80;99.90
23267;DHT22;11802;53.160;8.214;2023-03-01T07:08:05;-0.40;99.90
23267;DHT22;11802;53.160;8.214;2023-03-01T07:10:30;0.00;99.90
23267;DHT22;11802;53.160;8.214;2023-03-01T07:12:57;0.30;99.90
23267;DHT22;11802;53.160;8.214;2023-03-01T07:15:23;0.50;99.90
23267;DHT22;11802;53.160;8.214;2023-03-01T07:17:49;0.90;99.90
23267;DHT22;11802;53.160;8.214;2023-03-01T07:20:19;1.10;99.90
23267;DHT22;11802;53.160;8.214;2023-03-01T07:22:50;1.30;99.90
23267;DHT22;11802;53.160;8.214;2023-03-01T07:25:15;1.30;99.90
23267;DHT22;11802;53.160;8.214;2023-03-01T07:27:41;1.20;99.90
23267;DHT22;11802;53.160;8.214;2023-03-01T07:30:07;1.00;99.90
23267;DHT22;11802;53.160;8.214;2023-03-01T07:32:33;0.90;99.90
23267;DHT22;11802;53.160;8.214;2023-03-01T07:34:58;0.90;99.90
23267;DHT22;11802;53.160;8.214;2023-03-01T07:37:24;0.80;99.90
23267;DHT22;11802;53.160;8.214;2023-03-01T07:39:49;0.70;99.90
23267;DHT22;11802;53.160;8.214;2023-03-01T07:42:15;0.70;99.90
23267;DHT22;11802;53.160;8.214;2023-03-01T07:44:40;0.70;99.90
23267;DHT22;11802;53.160;8.214;2023-03-01T07:47:06;0.80;99.90
23267;DHT22;11802;53.160;8.214;2023-03-01T07:49:32;0.90;99.90
23267;DHT22;11802;53.160;8.214;2023-03-01T07:51:57;0.90;99.90
23267;DHT22;11802;53.160;8.214;2023-03-01T07:54:23;1.00;99.90
23267;DHT22;11802;53.160;8.214;2023-03-01T07:56:49;1.70;99.90
23267;DHT22;11802;53.160;8.214;2023-03-01T07:59:14;1.20;99.90
23267;DHT22;11802;53.160;8.214;2023-03-01T08:01:40;1.40;99.90
23267;DHT22;11802;53.160;8.214;2023-03-01T08:04:08;1.50;99.90
23267;DHT22;11802;53.160;8.214;2023-03-01T08:06:35;1.60;99.90
23267;DHT22;11802;53.160;8.214;2023-03-01T08:09:00;1.60;99.90
23267;DHT22;11802;53.160;8.214;2023-03-01T08:11:26;1.70;99.90
23267;DHT22;11802;53.160;8.214;2023-03-01T08:13:53;1.70;99.90
23267;DHT22;11802;53.160;8.214;2023-03-01T08:16:19;1.60;99.90
23267;DHT22;11802;53.160;8.214;2023-03-01T08:18:44;1.80;99.90
23267;DHT22;11802;53.160;8.214;2023-03-01T08:21:13;2.10;99.90
23267;DHT22;11802;53.160;8.214;2023-03-01T08:23:40;2.50;99.90
23267;DHT22;11802;53.160;8.214;2023-03-01T08:26:16;3.00;99.90
23267;DHT22;11802;53.160;8.214;2023-03-01T08:28:42;3.70;99.90
23267;DHT22;11802;53.160;8.214;2023-03-01T08:31:16;4.50;99.90
23267;DHT22;11802;53.160;8.214;2023-03-01T08:33:42;5.40;99.90
23267;DHT22;11802;53.160;8.214;2023-03-01T08:36:08;6.40;99.90
23267;DHT22;11802;53.160;8.214;2023-03-01T08:38:37;7.20;1.00
23267;DHT22;11802;53.160;8.214;2023-03-01T08:41:06;7.50;27.10
23267;DHT22;11802;53.160;8.214;2023-03-01T08:43:33;7.80;99.90
23267;DHT22;11802;53.160;8.214;2023-03-01T08:45:58;8.30;1.00
23267;DHT22;11802;53.160;8.214;2023-03-01T08:48:25;8.60;1.00
23267;DHT22;11802;53.160;8.214;2023-03-01T08:50:50;8.90;1.00
23267;DHT22;11802;53.160;8.214;2023-03-01T08:53:16;9.30;1.00
23267;DHT22;11802;53.160;8.214;2023-03-01T08:55:42;9.80;99.90
23267;DHT22;11802;53.160;8.214;2023-03-01T08:58:08;10.60;50.00
23267;DHT22;11802;53.160;8.214;2023-03-01T09:00:33;11.20;1.00
23267;DHT22;11802;53.160;8.214;2023-03-01T09:03:00;11.50;99.90
23267;DHT22;11802;53.160;8.214;2023-03-01T09:05:25;11.70;1.00
23267;DHT22;11802;53.160;8.214;2023-03-01T09:07:51;12.00;1.00
23267;DHT22;11802;53.160;8.214;2023-03-01T09:10:16;11.90;90.00
23267;DHT22;11802;53.160;8.214;2023-03-01T09:12:42;12.30;1.00
23267;DHT22;11802;53.160;8.214;2023-03-01T09:15:08;12.50;1.00
23267;DHT22;11802;53.160;8.214;2023-03-01T09:17:34;12.80;1.00
23267;DHT22;11802;53.160;8.214;2023-03-01T09:19:59;12.30;1.00
23267;DHT22;11802;53.160;8.214;2023-03-01T09:22:25;12.30;1.00
23267;DHT22;11802;53.160;8.214;2023-03-01T09:24:51;12.00;1.00
23267;DHT22;11802;53.160;8.214;2023-03-01T09:27:23;12.30;1.00
23267;DHT22;11802;53.160;8.214;2023-03-01T09:29:50;12.60;1.00
23267;DHT22;11802;53.160;8.214;2023-03-01T09:32:16;12.70;1.00
23267;DHT22;11802;53.160;8.214;2023-03-01T09:34:41;12.80;1.00
23267;DHT22;11802;53.160;8.214;2023-03-01T09:37:26;12.30;1.00
23267;DHT22;11802;53.160;8.214;2023-03-01T09:39:52;12.50;1.00
23267;DHT22;11802;53.160;8.214;2023-03-01T09:42:17;12.70;1.00
23267;DHT22;11802;53.160;8.214;2023-03-01T09:44:52;13.00;99.90
23267;DHT22;11802;53.160;8.214;2023-03-01T09:47:24;13.10;99.90
23267;DHT22;11802;53.160;8.214;2023-03-01T09:50:14;13.20;99.90
23267;DHT22;11802;53.160;8.214;2023-03-01T09:52:43;13.60;99.90
23267;DHT22;11802;53.160;8.214;2023-03-01T09:55:15;13.60;99.90
23267;DHT22;11802;53.160;8.214;2023-03-01T09:57:55;13.50;99.90
23267;DHT22;11802;53.160;8.214;2023-03-01T10:00:36;13.50;99.90
23267;DHT22;11802;53.160;8.214;2023-03-01T10:03:26;13.20;99.90
23267;DHT22;11802;53.160;8.214;2023-03-01T10:09:11;12.70;99.90
23267;DHT22;11802;53.160;8.214;2023-03-01T10:11:37;12.70;99.90
23267;DHT22;11802;53.160;8.214;2023-03-01T10:19:40;13.00;99.90
23267;DHT22;11802;53.160;8.214;2023-03-01T10:22:19;13.10;99.90
23267;DHT22;11802;53.160;8.214;2023-03-01T10:24:48;13.50;99.90
23267;DHT22;11802;53.160;8.214;2023-03-01T10:30:13;13.00;99.90
23267;DHT22;11802;53.160;8.214;2023-03-01T10:32:42;12.70;99.90
23267;DHT22;11802;53.160;8.214;2023-03-01T10:35:23;12.60;99.90
23267;DHT22;11802;53.160;8.214;2023-03-01T10:38:10;12.40;99.90
23267;DHT22;11802;53.160;8.214;2023-03-01T10:40:56;11.60;99.90
23267;DHT22;11802;53.160;8.214;2023-03-01T10:43:23;11.40;99.90
23267;DHT22;11802;53.160;8.214;2023-03-01T10:45:49;10.70;99.90
23267;DHT22;11802;53.160;8.214;2023-03-01T10:48:19;10.50;99.90
23267;DHT22;11802;53.160;8.214;2023-03-01T10:50:48;10.40;99.90
23267;DHT22;11802;53.160;8.214;2023-03-01T10:56:01;10.10;99.90
23267;DHT22;11802;53.160;8.214;2023-03-01T10:58:27;10.10;1.00
23267;DHT22;11802;53.160;8.214;2023-03-01T11:01:01;10.30;1.00
23267;DHT22;11802;53.160;8.214;2023-03-01T11:03:32;10.50;1.00
23267;DHT22;11802;53.160;8.214;2023-03-01T11:08:38;10.10;1.00
23267;DHT22;11802;53.160;8.214;2023-03-01T11:14:17;10.30;1.00
23267;DHT22;11802;53.160;8.214;2023-03-01T11:16:45;10.10;1.00
23267;DHT22;11802;53.160;8.214;2023-03-01T11:21:47;10.00;1.00
23267;DHT22;11802;53.160;8.214;2023-03-01T11:24:17;10.10;1.00
23267;DHT22;11802;53.160;8.214;2023-03-01T11:26:46;10.10;1.00
23267;DHT22;11802;53.160;8.214;2023-03-01T11:29:35;9.60;1.00
23267;DHT22;11802;53.160;8.214;2023-03-01T11:32:06;9.70;1.00
23267;DHT22;11802;53.160;8.214;2023-03-01T11:34:46;9.70;1.00
23267;DHT22;11802;53.160;8.214;2023-03-01T11:37:44;9.30;1.00
23267;DHT22;11802;53.160;8.214;2023-03-01T11:49:00;8.90;1.00
23267;DHT22;11802;53.160;8.214;2023-03-01T11:52:03;9.10;99.90
23267;DHT22;11802;53.160;8.214;2023-03-01T12:00:17;8.80;1.00
23267;DHT22;11802;53.160;8.214;2023-03-01T12:02:56;9.20;1.00
23267;DHT22;11802;53.160;8.214;2023-03-01T12:11:04;9.40;99.90
23267;DHT22;11802;53.160;8.214;2023-03-01T12:17:00;8.80;1.00
23267;DHT22;11802;53.160;8.214;2023-03-01T12:19:41;8.80;99.90
23267;DHT22;11802;53.160;8.214;2023-03-01T12:22:31;9.00;99.90
23267;DHT22;11802;53.160;8.214;2023-03-01T12:25:16;8.80;99.90
23267;DHT22;11802;53.160;8.214;2023-03-01T12:27:55;8.70;1.00
23267;DHT22;11802;53.160;8.214;2023-03-01T12:33:17;8.40;1.00
23267;DHT22;11802;53.160;8.214;2023-03-01T12:39:04;8.20;1.00
23267;DHT22;11802;53.160;8.214;2023-03-01T12:47:11;8.30;99.90
23267;DHT22;11802;53.160;8.214;2023-03-01T12:50:03;8.40;1.00
23267;DHT22;11802;53.160;8.214;2023-03-01T12:55:01;8.60;1.00
23267;DHT22;11802;53.160;8.214;2023-03-01T12:57:37;8.80;1.00
23267;DHT22;11802;53.160;8.214;2023-03-01T13:02:44;8.80;99.90
23267;DHT22;11802;53.160;8.214;2023-03-01T13:05:24;8.70;1.00
23267;DHT22;11802;53.160;8.214;2023-03-01T13:08:13;8.50;99.90
23267;DHT22;11802;53.160;8.214;2023-03-01T13:10:48;8.30;1.00
23267;DHT22;11802;53.160;8.214;2023-03-01T13:13:23;8.50;1.00
23267;DHT22;11802;53.160;8.214;2023-03-01T13:15:49;8.60;1.00
23267;DHT22;11802;53.160;8.214;2023-03-01T13:30:58;8.50;99.90
23267;DHT22;11802;53.160;8.214;2023-03-01T13:35:56;8.60;1.00
23267;DHT22;11802;53.160;8.214;2023-03-01T13:46:47;8.30;1.00
23267;DHT22;11802;53.160;8.214;2023-03-01T13:49:16;8.10;1.00
23267;DHT22;11802;53.160;8.214;2023-03-01T13:56:15;8.30;99.90
23267;DHT22;11802;53.160;8.214;2023-03-01T13:59:05;8.40;1.00
23267;DHT22;11802;53.160;8.214;2023-03-01T14:01:34;8.30;1.00
23267;DHT22;11802;53.160;8.214;2023-03-01T14:04:02;8.30;1.00
23267;DHT22;11802;53.160;8.214;2023-03-01T14:06:33;8.30;99.90
23267;DHT22;11802;53.160;8.214;2023-03-01T14:09:20;8.20;1.00
23267;DHT22;11802;53.160;8.214;2023-03-01T14:20:25;8.10;1.00
23267;DHT22;11802;53.160;8.214;2023-03-01T14:22:54;8.10;1.00
23267;DHT22;11802;53.160;8.214;2023-03-01T14:28:03;8.10;1.00
23267;DHT22;11802;53.160;8.214;2023-03-01T14:30:37;8.10;1.00
23267;DHT22;11802;53.160;8.214;2023-03-01T14:33:06;8.00;99.90
23267;DHT22;11802;53.160;8.214;2023-03-01T14:35:36;8.00;1.00
23267;DHT22;11802;53.160;8.214;2023-03-01T14:38:03;8.00;99.90
23267;DHT22;11802;53.160;8.214;2023-03-01T14:40:32;7.90;1.00
23267;DHT22;11802;53.160;8.214;2023-03-01T14:42:59;7.90;99.90
23267;DHT22;11802;53.160;8.214;2023-03-01T14:45:28;7.90;41.30
23267;DHT22;11802;53.160;8.214;2023-03-01T14:47:55;7.90;99.90
23267;DHT22;11802;53.160;8.214;2023-03-01T14:50:27;7.90;16.20
23267;DHT22;11802;53.160;8.214;2023-03-01T14:53:02;7.90;1.00
23267;DHT22;11802;53.160;8.214;2023-03-01T14:55:33;8.00;1.00
23267;DHT22;11802;53.160;8.214;2023-03-01T14:58:08;8.00;99.90
23267;DHT22;11802;53.160;8.214;2023-03-01T15:00:35;8.00;99.90
23267;DHT22;11802;53.160;8.214;2023-03-01T15:03:08;8.00;1.00
23267;DHT22;11802;53.160;8.214;2023-03-01T15:05:39;7.90;1.00
23267;DHT22;11802;53.160;8.214;2023-03-01T15:08:05;8.00;1.00
23267;DHT22;11802;53.160;8.214;2023-03-01T15:10:33;7.90;1.00
23267;DHT22;11802;53.160;8.214;2023-03-01T15:13:22;7.90;1.00
23267;DHT22;11802;53.160;8.214;2023-03-01T15:15:51;7.90;1.00
23267;DHT22;11802;53.160;8.214;2023-03-01T15:18:22;7.80;1.00
23267;DHT22;11802;53.160;8.214;2023-03-01T15:20:54;7.80;1.00
23267;DHT22;11802;53.160;8.214;2023-03-01T15:23:25;7.70;29.90
23267;DHT22;11802;53.160;8.214;2023-03-01T15:25:53;7.70;99.90
23267;DHT22;11802;53.160;8.214;2023-03-01T15:28:35;7.60;99.90
23267;DHT22;11802;53.160;8.214;2023-03-01T15:31:22;7.60;99.90
23267;DHT22;11802;53.160;8.214;2023-03-01T15:33:48;7.60;99.90
23267;DHT22;11802;53.160;8.214;2023-03-01T15:36:41;7.50;1.00
23267;DHT22;11802;53.160;8.214;2023-03-01T15:42:03;7.50;1.00
23267;DHT22;11802;53.160;8.214;2023-03-01T15:44:32;7.50;1.00
23267;DHT22;11802;53.160;8.214;2023-03-01T15:46:58;7.40;1.00
23267;DHT22;11802;53.160;8.214;2023-03-01T15:49:37;7.40;1.00
23267;DHT22;11802;53.160;8.214;2023-03-01T15:52:06;7.30;1.00
23267;DHT22;11802;53.160;8.214;2023-03-01T15:54:35;7.30;1.00
23267;DHT22;11802;53.160;8.214;2023-03-01T15:57:00;7.30;1.00
23267;DHT22;11802;53.160;8.214;2023-03-01T15:59:26;7.30;1.00
23267;DHT22;11802;53.160;8.214;2023-03-01T16:01:52;7.20;1.00
23267;DHT22;11802;53.160;8.214;2023-03-01T16:04:18;7.20;1.00
23267;DHT22;11802;53.160;8.214;2023-03-01T16:06:51;7.20;1.00
23267;DHT22;11802;53.160;8.214;2023-03-01T16:09:22;7.10;1.00
23267;DHT22;11802;53.160;8.214;2023-03-01T16:11:49;7.10;1.00
23267;DHT22;11802;53.160;8.214;2023-03-01T16:14:14;7.10;1.00
23267;DHT22;11802;53.160;8.214;2023-03-01T16:16:41;7.00;1.00
23267;DHT22;11802;53.160;8.214;2023-03-01T16:19:07;7.00;1.00
23267;DHT22;11802;53.160;8.214;2023-03-01T16:21:33;6.90;1.00
23267;DHT22;11802;53.160;8.214;2023-03-01T16:23:58;6.90;1.00
23267;DHT22;11802;53.160;8.214;2023-03-01T16:26:24;6.90;1.00
23267;DHT22;11802;53.160;8.214;2023-03-01T16:28:49;6.90;1.00
23267;DHT22;11802;53.160;8.214;2023-03-01T16:31:19;6.80;1.00
23267;DHT22;11802;53.160;8.214;2023-03-01T16:33:45;6.70;1.00
23267;DHT22;11802;53.160;8.214;2023-03-01T16:36:16;6.60;1.00
23267;DHT22;11802;53.160;8.214;2023-03-01T16:38:42;6.60;1.00
23267;DHT22;11802;53.160;8.214;2023-03-01T16:41:15;6.60;1.00
23267;DHT22;11802;53.160;8.214;2023-03-01T16:43:41;6.50;1.00
23267;DHT22;11802;53.160;8.214;2023-03-01T16:46:12;6.40;27.10
23267;DHT22;11802;53.160;8.214;2023-03-01T16:48:38;6.40;63.80
23267;DHT22;11802;53.160;8.214;2023-03-01T16:51:04;6.30;95.10
23267;DHT22;11802;53.160;8.214;2023-03-01T16:53:30;6.20;99.90
23267;DHT22;11802;53.160;8.214;2023-03-01T16:55:57;6.10;99.90
23267;DHT22;11802;53.160;8.214;2023-03-01T16:58:22;6.00;99.90
23267;DHT22;11802;53.160;8.214;2023-03-01T17:00:53;5.90;99.90
23267;DHT22;11802;53.160;8.214;2023-03-01T17:03:24;5.80;99.90
23267;DHT22;11802;53.160;8.214;2023-03-01T17:05:49;5.70;99.90
23267;DHT22;11802;53.160;8.214;2023-03-01T17:08:15;5.70;99.90
23267;DHT22;11802;53.160;8.214;2023-03-01T17:10:41;5.60;99.90
23267;DHT22;11802;53.160;8.214;2023-03-01T17:13:08;5.40;99.90
23267;DHT22;11802;53.160;8.214;2023-03-01T17:15:35;5.30;99.90
23267;DHT22;11802;53.160;8.214;2023-03-01T17:18:00;5.20;99.90
23267;DHT22;11802;53.160;8.214;2023-03-01T17:20:26;5.20;99.90
23267;DHT22;11802;53.160;8.214;2023-03-01T17:22:52;5.10;99.90
23267;DHT22;11802;53.160;8.214;2023-03-01T17:25:17;4.90;99.90
23267;DHT22;11802;53.160;8.214;2023-03-01T17:27:43;4.90;99.90
23267;DHT22;11802;53.160;8.214;2023-03-01T17:30:10;4.80;99.90
23267;DHT22;11802;53.160;8.214;2023-03-01T17:32:36;4.70;99.90
23267;DHT22;11802;53.160;8.214;2023-03-01T17:35:02;4.60;99.90
23267;DHT22;11802;53.160;8.214;2023-03-01T17:37:28;4.60;99.90
23267;DHT22;11802;53.160;8.214;2023-03-01T17:39:53;4.50;99.90
23267;DHT22;11802;53.160;8.214;2023-03-01T17:42:19;4.40;99.90